createdAt,value
2022-08-01T00:00:50.366Z,100922.03
2022-08-01T00:03:18.000Z,100923.00
2022-08-01T00:05:46.339Z,100925.13
2022-08-01T00:08:13.927Z,100919.69
2022-08-01T00:10:41.854Z,100923.44
2022-08-01T00:13:10.605Z,100919.09
2022-08-01T00:15:38.419Z,100925.84
2022-08-01T00:18:07.567Z,100937.00
2022-08-01T00:20:35.150Z,100924.88
2022-08-01T00:23:04.565Z,100927.19
2022-08-01T00:25:34.082Z,100931.19
2022-08-01T00:28:02.364Z,100924.78
2022-08-01T00:30:32.468Z,100936.88
2022-08-01T00:33:00.071Z,100929.25
2022-08-01T00:35:29.004Z,100935.59
2022-08-01T00:37:56.862Z,100934.25
2022-08-01T00:40:24.622Z,100931.50
2022-08-01T00:42:52.604Z,100931.31
2022-08-01T00:45:20.339Z,100933.47
2022-08-01T00:47:48.015Z,100931.19
2022-08-01T00:50:22.930Z,100930.09
2022-08-01T00:52:54.033Z,100931.19
2022-08-01T00:55:22.148Z,100934.94
2022-08-01T00:58:03.884Z,100938.44
2022-08-01T01:00:34.831Z,100939.16
2022-08-01T01:03:20.331Z,100936.75
2022-08-01T01:05:56.680Z,100932.28
2022-08-01T01:08:31.339Z,100933.72
2022-08-01T01:11:03.459Z,100933.59
2022-08-01T01:13:50.817Z,100936.28
2022-08-01T01:16:20.921Z,100932.41
2022-08-01T01:18:50.068Z,100939.81
2022-08-01T01:21:37.538Z,100938.34
2022-08-01T01:24:15.392Z,100935.53
2022-08-01T01:26:49.921Z,100930.69
2022-08-01T01:29:23.440Z,100934.84
2022-08-01T01:31:54.083Z,100927.38
2022-08-01T01:34:23.407Z,100935.94
2022-08-01T01:36:53.760Z,100937.19
2022-08-01T01:39:22.856Z,100931.22
2022-08-01T01:41:51.160Z,100928.91
2022-08-01T01:44:20.712Z,100933.72
2022-08-01T01:46:49.549Z,100935.00
2022-08-01T01:49:18.480Z,100939.50
2022-08-01T01:51:53.278Z,100934.53
2022-08-01T01:54:33.296Z,100929.78
2022-08-01T01:57:01.800Z,100934.66
2022-08-01T01:59:32.698Z,100931.00
2022-08-01T02:02:06.126Z,100935.25
2022-08-01T02:04:35.086Z,100926.88
2022-08-01T02:07:04.260Z,100925.19
2022-08-01T02:09:32.844Z,100926.78
2022-08-01T02:12:08.782Z,100931.00
2022-08-01T02:14:40.891Z,100931.91
2022-08-01T02:17:08.554Z,100935.66
2022-08-01T02:19:38.010Z,100943.81
2022-08-01T02:22:10.118Z,100938.50
2022-08-01T02:24:41.622Z,100943.34
2022-08-01T02:27:11.883Z,100935.13
2022-08-01T02:29:43.887Z,100933.19
2022-08-01T02:32:15.039Z,100937.56
2022-08-01T02:34:43.622Z,100944.41
2022-08-01T02:37:12.325Z,100946.16
2022-08-01T02:39:40.443Z,100940.19
2022-08-01T02:42:10.400Z,100943.44
2022-08-01T02:44:41.399Z,100944.97
2022-08-01T02:47:11.145Z,100949.38
2022-08-01T02:49:42.038Z,100947.28
2022-08-01T02:52:13.480Z,100947.66
2022-08-01T02:54:42.498Z,100950.06
2022-08-01T02:57:13.738Z,100948.28
2022-08-01T02:59:43.687Z,100947.22
2022-08-01T03:02:14.038Z,100944.28
2022-08-01T03:04:42.591Z,100946.19
2022-08-01T03:07:11.759Z,100946.72
2022-08-01T03:09:41.121Z,100949.38
2022-08-01T03:12:11.727Z,100946.44
2022-08-01T03:14:43.195Z,100953.47
2022-08-01T03:17:12.371Z,100949.22
2022-08-01T03:19:40.536Z,100955.81
2022-08-01T03:22:09.388Z,100955.81
2022-08-01T03:24:38.237Z,100957.34
2022-08-01T03:27:06.632Z,100959.13
2022-08-01T03:29:34.990Z,100965.19
2022-08-01T03:32:04.383Z,100961.34
2022-08-01T03:34:32.459Z,100966.34
2022-08-01T03:37:04.627Z,100960.34
2022-08-01T03:39:34.184Z,100965.81
2022-08-01T03:42:04.228Z,100965.09
2022-08-01T03:44:34.304Z,100959.88
2022-08-01T03:47:05.073Z,100970.66
2022-08-01T03:49:34.935Z,100964.34
2022-08-01T03:52:05.680Z,100970.88
2022-08-01T03:54:36.992Z,100976.19
2022-08-01T03:57:05.065Z,100973.66
2022-08-01T03:59:34.237Z,100974.34
2022-08-01T04:02:01.974Z,100975.91
2022-08-01T04:04:31.360Z,100972.13
2022-08-01T04:07:04.935Z,100975.59
2022-08-01T04:09:33.064Z,100984.31
2022-08-01T04:12:01.061Z,100989.66
2022-08-01T04:14:39.620Z,100980.09
2022-08-01T04:17:07.176Z,100985.72
2022-08-01T04:19:36.140Z,100985.41
2022-08-01T04:22:04.851Z,100985.50
2022-08-01T04:24:34.706Z,100979.66
2022-08-01T04:27:02.862Z,100989.28
2022-08-01T04:29:32.157Z,100988.09
2022-08-01T04:32:01.419Z,100987.63
2022-08-01T04:34:31.274Z,100991.81
2022-08-01T04:37:01.318Z,100992.53
2022-08-01T04:39:31.736Z,100986.47
2022-08-01T04:42:00.115Z,100993.78
2022-08-01T04:44:32.625Z,101000.28
2022-08-01T04:47:01.867Z,101010.25
2022-08-01T04:49:31.035Z,101012.50
2022-08-01T04:52:01.886Z,101010.69
2022-08-01T04:54:30.679Z,101019.03
2022-08-01T04:57:00.707Z,101018.91
2022-08-01T04:59:43.408Z,101017.88
2022-08-01T05:02:12.392Z,101015.44
2022-08-01T05:04:40.631Z,101019.69
2022-08-01T05:07:09.984Z,101022.22
2022-08-01T05:09:37.998Z,101031.47
2022-08-01T05:12:07.493Z,101022.88
2022-08-01T05:14:35.559Z,101031.81
2022-08-01T05:17:04.915Z,101028.13
2022-08-01T05:19:33.773Z,101036.19
2022-08-01T05:22:02.409Z,101031.91
2022-08-01T05:24:31.996Z,101031.13
2022-08-01T05:27:00.551Z,101038.16
2022-08-01T05:29:28.865Z,101038.19
2022-08-01T05:31:56.458Z,101038.03
2022-08-01T05:34:24.143Z,101042.66
2022-08-01T05:36:55.383Z,101036.34
2022-08-01T05:39:25.331Z,101036.69
2022-08-01T05:41:54.252Z,101042.41
2022-08-01T05:44:22.032Z,101042.47
2022-08-01T05:46:49.668Z,101033.91
2022-08-01T05:49:17.311Z,101038.78
2022-08-01T05:51:45.017Z,101036.41
2022-08-01T05:54:12.692Z,101035.69
2022-08-01T05:56:40.256Z,101034.22
2022-08-01T05:59:09.178Z,101042.91
2022-08-01T06:01:36.837Z,101043.75
2022-08-01T06:04:04.751Z,101047.50
2022-08-01T06:06:32.312Z,101043.88
2022-08-01T06:08:59.883Z,101051.75
2022-08-01T06:11:27.461Z,101055.75
2022-08-01T06:13:55.438Z,101047.16
2022-08-01T06:16:24.663Z,101046.31
2022-08-01T06:18:56.505Z,101046.06
2022-08-01T06:21:24.577Z,101041.47
2022-08-01T06:23:52.154Z,101042.69
2022-08-01T06:26:20.068Z,101045.84
2022-08-01T06:28:47.707Z,101034.31
2022-08-01T06:31:16.518Z,101041.47
2022-08-01T06:33:45.448Z,101038.56
2022-08-01T06:36:13.066Z,101050.06
2022-08-01T06:38:40.692Z,101051.41
2022-08-01T06:41:08.276Z,101055.75
2022-08-01T06:43:35.878Z,101063.88
2022-08-01T06:46:03.469Z,101061.34
2022-08-01T06:48:31.064Z,101062.09
2022-08-01T06:51:13.959Z,101060.13
2022-08-01T06:53:41.659Z,101070.91
2022-08-01T06:56:11.480Z,101072.84
2022-08-01T06:58:39.556Z,101075.63
2022-08-01T07:01:08.130Z,101081.69
2022-08-01T07:03:52.730Z,101077.56
2022-08-01T07:06:24.599Z,101075.53
2022-08-01T07:08:52.385Z,101079.06
2022-08-01T07:11:20.346Z,101076.63
2022-08-01T07:13:47.923Z,101080.28
2022-08-01T07:16:15.909Z,101089.72
2022-08-01T07:18:43.784Z,101086.06
2022-08-01T07:21:16.645Z,101078.31
2022-08-01T07:24:00.562Z,101087.78
2022-08-01T07:26:28.575Z,101082.44
2022-08-01T07:28:56.254Z,101085.09
2022-08-01T07:31:23.939Z,101085.09
2022-08-01T07:33:51.699Z,101086.03
2022-08-01T07:36:19.483Z,101085.78
2022-08-01T07:38:47.515Z,101083.09
2022-08-01T07:41:16.772Z,101093.00
2022-08-01T07:43:54.379Z,101098.75
2022-08-01T07:46:24.017Z,101095.41
2022-08-01T07:48:51.616Z,101102.22
2022-08-01T07:51:19.227Z,101100.38
2022-08-01T07:53:46.852Z,101104.88
2022-08-01T07:56:15.812Z,101099.47
2022-08-01T07:58:43.380Z,101099.31
2022-08-01T08:01:11.016Z,101101.63
2022-08-01T08:03:38.603Z,101111.53
2022-08-01T08:06:06.619Z,101111.09
2022-08-01T08:08:35.521Z,101113.34
2022-08-01T08:11:03.393Z,101115.34
2022-08-01T08:13:32.386Z,101119.19
2022-08-01T08:16:00.667Z,101127.91
2022-08-01T08:18:28.367Z,101126.69
2022-08-01T08:20:55.962Z,101122.41
2022-08-01T08:23:43.538Z,101121.50
2022-08-01T08:26:11.691Z,101124.78
2022-08-01T08:28:40.991Z,101122.38
2022-08-01T08:31:50.830Z,101120.66
2022-08-01T08:33:56.615Z,101133.47
2022-08-01T08:36:31.230Z,101135.09
2022-08-01T08:39:01.248Z,101132.00
2022-08-01T08:41:38.154Z,101138.91
2022-08-01T08:44:10.575Z,101136.00
2022-08-01T08:46:43.425Z,101132.09
2022-08-01T08:49:11.800Z,101132.16
2022-08-01T08:51:40.853Z,101139.78
2022-08-01T08:54:09.010Z,101138.88
2022-08-01T08:56:37.079Z,101138.00
2022-08-01T08:59:05.186Z,101151.56
2022-08-01T09:01:35.925Z,101146.03
2022-08-01T09:04:04.080Z,101144.72
2022-08-01T09:06:32.142Z,101153.66
2022-08-01T09:09:00.405Z,101156.81
2022-08-01T09:11:28.030Z,101150.28
2022-08-01T09:14:07.779Z,101155.06
2022-08-01T09:16:38.563Z,101160.13
2022-08-01T09:19:16.420Z,101167.09
2022-08-01T09:22:01.555Z,101170.97
2022-08-01T09:24:30.923Z,101173.94
2022-08-01T09:26:59.234Z,101170.00
2022-08-01T09:29:37.377Z,101178.00
2022-08-01T09:32:13.907Z,101171.97
2022-08-01T09:34:44.022Z,101187.81
2022-08-01T09:37:15.104Z,101180.22
2022-08-01T09:39:44.191Z,101179.38
2022-08-01T09:42:28.748Z,101185.69
2022-08-01T09:44:57.154Z,101177.75
2022-08-01T09:47:39.250Z,101181.25
2022-08-01T09:50:11.062Z,101184.00
2022-08-01T09:52:40.921Z,101192.53
2022-08-01T09:55:09.804Z,101188.31
2022-08-01T09:57:37.378Z,101182.94
2022-08-01T10:00:06.764Z,101182.84
2022-08-01T10:02:38.332Z,101178.31
2022-08-01T10:05:09.102Z,101185.19
2022-08-01T10:07:43.831Z,101185.50
2022-08-01T10:10:13.076Z,101180.03
2022-08-01T10:12:45.246Z,101183.84
2022-08-01T10:15:14.292Z,101186.03
2022-08-01T10:17:51.241Z,101177.59
2022-08-01T10:20:30.474Z,101176.81
2022-08-01T10:23:01.902Z,101172.03
2022-08-01T10:25:42.445Z,101180.97
2022-08-01T10:28:18.102Z,101179.94
2022-08-01T10:30:49.708Z,101185.63
2022-08-01T10:33:49.933Z,101187.22
2022-08-01T10:36:08.303Z,101195.44
2022-08-01T10:38:37.307Z,101183.78
2022-08-01T10:41:06.434Z,101194.84
2022-08-01T10:43:36.410Z,101194.03
2022-08-01T10:46:04.602Z,101193.28
2022-08-01T10:48:38.261Z,101189.34
2022-08-01T10:51:17.516Z,101190.19
2022-08-01T10:53:50.036Z,101188.84
2022-08-01T10:56:18.172Z,101190.59
2022-08-01T10:58:48.726Z,101192.16
2022-08-01T11:01:21.161Z,101188.44
2022-08-01T11:04:04.905Z,101195.97
2022-08-01T11:06:42.957Z,101190.03
2022-08-01T11:09:24.686Z,101195.09
2022-08-01T11:12:08.882Z,101189.63
2022-08-01T11:15:14.918Z,101182.88
2022-08-01T11:17:48.331Z,101191.53
2022-08-01T11:20:19.037Z,101181.84
2022-08-01T11:23:29.709Z,101192.56
2022-08-01T11:26:29.209Z,101187.06
2022-08-01T11:29:21.195Z,101180.59
2022-08-01T11:31:50.485Z,101185.97
2022-08-01T11:34:18.207Z,101195.97
2022-08-01T11:37:03.263Z,101186.59
2022-08-01T11:39:34.349Z,101186.72
2022-08-01T11:42:20.658Z,101178.78
2022-08-01T11:44:52.129Z,101181.06
2022-08-01T11:47:21.447Z,101176.25
2022-08-01T11:49:56.111Z,101176.44
2022-08-01T11:52:30.147Z,101184.28
2022-08-01T11:54:59.618Z,101188.00
2022-08-01T11:57:33.959Z,101183.13
2022-08-01T12:00:08.790Z,101187.56
2022-08-01T12:02:36.854Z,101187.00
2022-08-01T12:05:08.387Z,101190.91
2022-08-01T12:07:38.259Z,101191.34
2022-08-01T12:10:07.886Z,101184.19
2022-08-01T12:12:36.983Z,101186.47
2022-08-01T12:15:06.184Z,101184.34
2022-08-01T12:17:39.398Z,101187.78
2022-08-01T12:20:09.337Z,101183.91
2022-08-01T12:22:39.059Z,101179.19
2022-08-01T12:25:10.679Z,101186.72
2022-08-01T12:27:39.210Z,101175.41
2022-08-01T12:30:09.220Z,101197.41
2022-08-01T12:32:38.894Z,101189.66
2022-08-01T12:35:09.665Z,101196.50
2022-08-01T12:37:39.159Z,101190.31
2022-08-01T12:40:15.325Z,101189.59
2022-08-01T12:42:43.866Z,101186.22
2022-08-01T12:45:14.592Z,101195.47
2022-08-01T12:47:42.705Z,101207.94
2022-08-01T12:50:14.032Z,101203.22
2022-08-01T12:52:43.587Z,101196.25
2022-08-01T12:55:14.102Z,101195.50
2022-08-01T12:57:43.124Z,101197.78
2022-08-01T13:00:16.779Z,101197.00
2022-08-01T13:02:45.217Z,101202.19
2022-08-01T13:05:13.165Z,101199.34
2022-08-01T13:07:47.586Z,101197.88
2022-08-01T13:10:17.264Z,101192.22
2022-08-01T13:12:54.079Z,101195.81
2022-08-01T13:15:28.116Z,101193.13
2022-08-01T13:17:56.284Z,101184.66
2022-08-01T13:20:25.542Z,101193.53
2022-08-01T13:22:54.651Z,101188.84
2022-08-01T13:25:24.498Z,101185.47
2022-08-01T13:28:18.218Z,101176.06
2022-08-01T13:30:57.091Z,101185.44
2022-08-01T13:33:25.611Z,101180.13
2022-08-01T13:35:54.340Z,101190.31
2022-08-01T13:38:43.903Z,101186.47
2022-08-01T13:41:11.972Z,101178.31
2022-08-01T13:43:58.356Z,101187.75
2022-08-01T13:46:27.052Z,101185.09
2022-08-01T13:48:57.361Z,101188.44
2022-08-01T13:51:26.132Z,101189.63
2022-08-01T13:53:55.056Z,101189.03
2022-08-01T13:56:23.832Z,101188.47
2022-08-01T13:58:51.448Z,101186.84
2022-08-01T14:01:19.099Z,101179.31
2022-08-01T14:03:47.245Z,101175.56
2022-08-01T14:06:16.852Z,101176.31
2022-08-01T14:08:45.965Z,101174.25
2022-08-01T14:11:15.231Z,101176.03
2022-08-01T14:13:45.182Z,101175.69
2022-08-01T14:16:14.596Z,101170.03
2022-08-01T14:18:44.292Z,101172.78
2022-08-01T14:21:12.176Z,101172.13
2022-08-01T14:23:39.947Z,101159.94
2022-08-01T14:26:12.130Z,101167.66
2022-08-01T14:28:41.515Z,101173.78
2022-08-01T14:31:09.327Z,101170.72
2022-08-01T14:33:37.290Z,101167.44
2022-08-01T14:36:30.848Z,101164.34
2022-08-01T14:38:53.074Z,101160.09
2022-08-01T14:41:20.658Z,101161.41
2022-08-01T14:43:49.617Z,101162.38
2022-08-01T14:46:17.558Z,101159.78
2022-08-01T14:48:45.162Z,101159.63
2022-08-01T14:51:12.785Z,101158.13
2022-08-01T14:53:41.563Z,101163.28
2022-08-01T14:56:14.874Z,101163.34
2022-08-01T14:58:42.505Z,101159.72
2022-08-01T15:01:11.528Z,101152.50
2022-08-01T15:03:39.246Z,101150.81
2022-08-01T15:06:10.455Z,101152.22
2022-08-01T15:08:38.080Z,101165.22
2022-08-01T15:11:05.686Z,101164.09
2022-08-01T15:13:33.461Z,101163.31
2022-08-01T15:16:01.401Z,101163.09
2022-08-01T15:18:30.563Z,101164.13
2022-08-01T15:21:01.926Z,101168.13
2022-08-01T15:23:29.611Z,101151.53
2022-08-01T15:25:57.220Z,101146.00
2022-08-01T15:28:25.581Z,101154.47
2022-08-01T15:30:53.184Z,101161.97
2022-08-01T15:33:22.488Z,101154.78
2022-08-01T15:35:52.860Z,101156.75
2022-08-01T15:38:22.371Z,101147.31
2022-08-01T15:40:49.988Z,101147.00
2022-08-01T15:43:17.607Z,101136.72
2022-08-01T15:45:48.179Z,101143.09
2022-08-01T15:48:16.600Z,101144.19
2022-08-01T15:50:44.273Z,101144.59
2022-08-01T15:53:13.268Z,101143.34
2022-08-01T15:55:40.888Z,101134.13
2022-08-01T15:58:11.644Z,101138.34
2022-08-01T16:00:40.197Z,101134.91
2022-08-01T16:03:08.460Z,101136.06
2022-08-01T16:05:42.923Z,101140.53
2022-08-01T16:08:13.232Z,101128.34
2022-08-01T16:10:41.342Z,101138.53
2022-08-01T16:13:09.362Z,101140.19
2022-08-01T16:15:38.182Z,101133.13
2022-08-01T16:18:06.418Z,101149.41
2022-08-01T16:20:34.125Z,101149.38
2022-08-01T16:23:01.782Z,101149.13
2022-08-01T16:25:30.757Z,101149.97
2022-08-01T16:27:58.371Z,101152.78
2022-08-01T16:30:26.163Z,101146.59
2022-08-01T16:32:56.661Z,101153.94
2022-08-01T16:35:36.395Z,101146.84
2022-08-01T16:38:04.723Z,101153.41
2022-08-01T16:40:34.895Z,101146.28
2022-08-01T16:43:14.383Z,101153.13
2022-08-01T16:45:42.876Z,101155.25
2022-08-01T16:48:12.059Z,101163.44
2022-08-01T16:50:40.421Z,101153.97
2022-08-01T16:53:08.203Z,101156.59
2022-08-01T16:55:49.457Z,101156.41
2022-08-01T16:58:18.860Z,101148.91
2022-08-01T17:00:56.752Z,101154.94
2022-08-01T17:03:46.891Z,101148.03
2022-08-01T17:06:12.798Z,101154.41
2022-08-01T17:08:46.137Z,101157.72
2022-08-01T17:11:16.219Z,101156.56
2022-08-01T17:13:44.021Z,101163.38
2022-08-01T17:16:12.192Z,101164.78
2022-08-01T17:18:39.864Z,101157.72
2022-08-01T17:21:07.739Z,101159.53
2022-08-01T17:23:35.780Z,101152.44
2022-08-01T17:26:03.396Z,101148.06
2022-08-01T17:28:32.633Z,101157.16
2022-08-01T17:31:00.275Z,101151.56
2022-08-01T17:33:45.514Z,101151.97
2022-08-01T17:36:15.227Z,101153.53
2022-08-01T17:38:42.915Z,101161.56
2022-08-01T17:41:10.545Z,101160.72
2022-08-01T17:43:39.540Z,101164.03
2022-08-01T17:46:07.147Z,101169.25
2022-08-01T17:48:34.748Z,101167.66
2022-08-01T17:51:02.418Z,101168.78
2022-08-01T17:53:30.563Z,101176.97
2022-08-01T17:56:00.617Z,101176.16
2022-08-01T17:58:49.845Z,101174.56
2022-08-01T18:01:19.979Z,101183.56
2022-08-01T18:03:47.933Z,101182.81
2022-08-01T18:06:17.382Z,101185.94
2022-08-01T18:08:46.731Z,101192.75
2022-08-01T18:11:15.289Z,101188.88
2022-08-01T18:13:43.268Z,101188.44
2022-08-01T18:16:12.894Z,101190.66
2022-08-01T18:18:43.407Z,101194.06
2022-08-01T18:21:12.525Z,101193.53
2022-08-01T18:23:40.190Z,101194.31
2022-08-01T18:26:12.038Z,101198.75
2022-08-01T18:28:41.982Z,101193.53
2022-08-01T18:31:16.648Z,101199.91
2022-08-01T18:33:46.230Z,101202.63
2022-08-01T18:36:32.205Z,101205.84
2022-08-01T18:39:04.631Z,101201.06
2022-08-01T18:41:33.298Z,101207.72
2022-08-01T18:44:05.568Z,101207.09
2022-08-01T18:46:36.127Z,101213.53
2022-08-01T18:49:06.131Z,101211.75
2022-08-01T18:51:33.854Z,101203.00
2022-08-01T18:54:01.488Z,101207.84
2022-08-01T18:56:29.084Z,101201.31
2022-08-01T18:58:56.809Z,101204.91
2022-08-01T19:01:24.962Z,101196.28
2022-08-01T19:03:52.613Z,101202.34
2022-08-01T19:06:21.551Z,101215.47
2022-08-01T19:08:49.174Z,101216.69
2022-08-01T19:11:16.766Z,101218.56
2022-08-01T19:13:44.377Z,101212.13
2022-08-01T19:16:12.969Z,101219.78
2022-08-01T19:18:41.058Z,101220.13
2022-08-01T19:21:08.766Z,101215.38
2022-08-01T19:23:55.016Z,101218.06
2022-08-01T19:26:25.804Z,101227.56
2022-08-01T19:28:57.117Z,101229.41
2022-08-01T19:31:27.556Z,101228.41
2022-08-01T19:33:55.928Z,101228.63
2022-08-01T19:36:24.591Z,101227.47
2022-08-01T19:38:54.456Z,101233.50
2022-08-01T19:41:23.031Z,101234.34
2022-08-01T19:43:51.680Z,101246.34
2022-08-01T19:46:19.717Z,101254.78
2022-08-01T19:48:53.692Z,101252.59
2022-08-01T19:51:33.223Z,101254.41
2022-08-01T19:54:05.340Z,101263.75
2022-08-01T19:56:39.612Z,101255.03
2022-08-01T19:59:08.850Z,101251.25
2022-08-01T20:01:37.514Z,101269.22
2022-08-01T20:04:05.549Z,101266.16
2022-08-01T20:06:34.787Z,101273.59
2022-08-01T20:09:04.687Z,101279.44
2022-08-01T20:11:32.686Z,101273.66
2022-08-01T20:14:00.988Z,101278.88
2022-08-01T20:16:29.650Z,101271.31
2022-08-01T20:18:57.448Z,101270.84
2022-08-01T20:21:27.104Z,101268.63
2022-08-01T20:24:02.896Z,101276.41
2022-08-01T20:26:32.740Z,101266.38
2022-08-01T20:29:01.600Z,101270.69
2022-08-01T20:31:42.758Z,101262.31
2022-08-01T20:34:15.503Z,101267.53
2022-08-01T20:36:54.531Z,101272.03
2022-08-01T20:39:25.239Z,101269.63
2022-08-01T20:41:59.922Z,101263.47
2022-08-01T20:44:31.394Z,101267.00
2022-08-01T20:47:00.037Z,101273.81
2022-08-01T20:49:28.174Z,101273.34
2022-08-01T20:51:56.509Z,101260.16
2022-08-01T20:54:24.120Z,101261.88
2022-08-01T20:56:58.875Z,101260.06
2022-08-01T20:59:54.966Z,101265.56
2022-08-01T21:02:31.755Z,101266.78
2022-08-01T21:05:05.286Z,101262.06
2022-08-01T21:07:34.351Z,101260.16
2022-08-01T21:10:06.984Z,101259.19
2022-08-01T21:12:43.631Z,101259.09
2022-08-01T21:15:15.205Z,101262.44
2022-08-01T21:17:46.403Z,101262.44
2022-08-01T21:20:15.500Z,101263.94
2022-08-01T21:22:51.540Z,101261.00
2022-08-01T21:25:21.902Z,101261.91
2022-08-01T21:27:52.858Z,101263.06
2022-08-01T21:30:20.720Z,101256.16
2022-08-01T21:32:48.700Z,101265.78
2022-08-01T21:35:18.684Z,101265.97
2022-08-01T21:37:52.675Z,101267.50
2022-08-01T21:40:21.785Z,101264.75
2022-08-01T21:42:51.852Z,101264.09
2022-08-01T21:45:21.018Z,101269.72
2022-08-01T21:47:49.968Z,101270.84
2022-08-01T21:50:17.640Z,101268.97
2022-08-01T21:52:49.667Z,101269.31
2022-08-01T21:55:32.176Z,101288.72
2022-08-01T21:58:14.596Z,101291.06
2022-08-01T22:00:47.352Z,101286.84
2022-08-01T22:03:23.546Z,101288.72
2022-08-01T22:05:53.095Z,101295.88
2022-08-01T22:08:25.661Z,101299.50
2022-08-01T22:10:58.669Z,101294.47
2022-08-01T22:13:27.883Z,101291.41
2022-08-01T22:15:57.487Z,101287.53
2022-08-01T22:18:27.647Z,101289.06
2022-08-01T22:20:56.527Z,101286.59
2022-08-01T22:23:24.358Z,101292.22
2022-08-01T22:25:53.502Z,101292.13
2022-08-01T22:28:21.808Z,101289.56
2022-08-01T22:30:52.676Z,101291.84
2022-08-01T22:33:20.660Z,101293.00
2022-08-01T22:35:50.164Z,101282.28
2022-08-01T22:38:19.198Z,101285.94
2022-08-01T22:40:50.012Z,101284.31
2022-08-01T22:43:26.077Z,101280.03
2022-08-01T22:46:07.396Z,101281.13
2022-08-01T22:48:40.230Z,101288.59
2022-08-01T22:51:11.275Z,101285.97
2022-08-01T22:53:44.033Z,101285.44
2022-08-01T22:56:11.829Z,101285.56
2022-08-01T22:58:41.135Z,101278.50
2022-08-01T23:01:13.052Z,101280.44
2022-08-01T23:03:51.480Z,101285.16
2022-08-01T23:06:23.971Z,101296.91
2022-08-01T23:08:51.884Z,101287.97
2022-08-01T23:11:21.059Z,101281.91
2022-08-01T23:13:48.811Z,101282.28
2022-08-01T23:16:18.759Z,101286.69
2022-08-01T23:18:46.523Z,101283.22
2022-08-01T23:21:14.399Z,101290.38
2022-08-01T23:23:42.516Z,101289.91
2022-08-01T23:26:10.504Z,101288.81
2022-08-01T23:28:40.270Z,101280.25
2022-08-01T23:31:07.998Z,101278.72
2022-08-01T23:33:36.955Z,101285.00
2022-08-01T23:36:05.115Z,101285.16
2022-08-01T23:38:32.749Z,101289.56
2022-08-01T23:41:00.383Z,101292.81
2022-08-01T23:43:28.003Z,101294.28
2022-08-01T23:46:04.671Z,101294.13
2022-08-01T23:48:33.432Z,101294.03
2022-08-01T23:51:02.502Z,101292.81
2022-08-01T23:53:31.089Z,101275.75
2022-08-01T23:56:02.630Z,101276.22
2022-08-01T23:58:31.323Z,101272.97
